sensor_id;sensor_type;location;lat;lon;timestamp;temperature;humidity
55771;DHT22;41687;-33.234;-60.334;2023-08-07T00:00:13;16.30;99.90
55771;DHT22;41687;-33.234;-60.334;2023-08-07T00:02:41;16.30;99.90
55771;DHT22;41687;-33.234;-60.334;2023-08-07T00:05:09;16.30;99.90
55771;DHT22;41687;-33.234;-60.334;2023-08-07T00:07:37;16.30;99.90
55771;DHT22;41687;-33.234;-60.334;2023-08-07T00:10:04;16.30;99.90
55771;DHT22;41687;-33.234;-60.334;2023-08-07T00:12:32;16.30;99.90
55771;DHT22;41687;-33.234;-60.334;2023-08-07T00:15:00;16.30;99.90
55771;DHT22;41687;-33.234;-60.334;2023-08-07T00:17:27;16.30;99.90
55771;DHT22;41687;-33.234;-60.334;2023-08-07T00:19:55;16.20;99.90
55771;DHT22;41687;-33.234;-60.334;2023-08-07T00:22:22;16.20;99.90
55771;DHT22;41687;-33.234;-60.334;2023-08-07T00:24:50;16.20;99.90
55771;DHT22;41687;-33.234;-60.334;2023-08-07T00:27:18;16.20;99.90
55771;DHT22;41687;-33.234;-60.334;2023-08-07T00:29:45;16.10;99.90
55771;DHT22;41687;-33.234;-60.334;2023-08-07T00:32:13;16.10;99.90
55771;DHT22;41687;-33.234;-60.334;2023-08-07T00:34:41;16.10;99.90
55771;DHT22;41687;-33.234;-60.334;2023-08-07T00:37:09;16.10;99.90
55771;DHT22;41687;-33.234;-60.334;2023-08-07T00:39:36;16.10;99.90
55771;DHT22;41687;-33.234;-60.334;2023-08-07T00:42:04;16.10;99.90
55771;DHT22;41687;-33.234;-60.334;2023-08-07T00:44:32;16.10;99.90
55771;DHT22;41687;-33.234;-60.334;2023-08-07T00:47:00;16.10;99.90
55771;DHT22;41687;-33.234;-60.334;2023-08-07T00:49:28;16.10;99.90
55771;DHT22;41687;-33.234;-60.334;2023-08-07T00:51:56;16.10;99.90
55771;DHT22;41687;-33.234;-60.334;2023-08-07T00:54:25;16.00;99.90
55771;DHT22;41687;-33.234;-60.334;2023-08-07T00:56:54;16.00;99.90
55771;DHT22;41687;-33.234;-60.334;2023-08-07T00:59:21;16.00;99.90
55771;DHT22;41687;-33.234;-60.334;2023-08-07T01:01:50;16.00;99.90
55771;DHT22;41687;-33.234;-60.334;2023-08-07T01:04:17;16.00;99.90
55771;DHT22;41687;-33.234;-60.334;2023-08-07T01:06:47;16.00;99.90
55771;DHT22;41687;-33.234;-60.334;2023-08-07T01:09:14;15.90;99.90
55771;DHT22;41687;-33.234;-60.334;2023-08-07T01:11:55;15.90;99.90
55771;DHT22;41687;-33.234;-60.334;2023-08-07T01:14:49;15.80;99.90
55771;DHT22;41687;-33.234;-60.334;2023-08-07T01:17:19;15.80;99.90
55771;DHT22;41687;-33.234;-60.334;2023-08-07T01:19:50;15.80;99.90
55771;DHT22;41687;-33.234;-60.334;2023-08-07T01:22:19;15.70;99.90
55771;DHT22;41687;-33.234;-60.334;2023-08-07T01:24:48;15.70;99.90
55771;DHT22;41687;-33.234;-60.334;2023-08-07T01:30:02;15.60;99.90
55771;DHT22;41687;-33.234;-60.334;2023-08-07T01:35:07;15.60;99.90
55771;DHT22;41687;-33.234;-60.334;2023-08-07T01:37:39;15.60;99.90
55771;DHT22;41687;-33.234;-60.334;2023-08-07T01:40:09;15.50;99.90
55771;DHT22;41687;-33.234;-60.334;2023-08-07T01:42:37;15.50;99.40
55771;DHT22;41687;-33.234;-60.334;2023-08-07T01:45:06;15.40;98.80
55771;DHT22;41687;-33.234;-60.334;2023-08-07T01:47:34;15.40;98.30
55771;DHT22;41687;-33.234;-60.334;2023-08-07T01:50:02;15.30;97.90
55771;DHT22;41687;-33.234;-60.334;2023-08-07T01:52:29;15.30;97.70
55771;DHT22;41687;-33.234;-60.334;2023-08-07T01:54:57;15.20;96.90
55771;DHT22;41687;-33.234;-60.334;2023-08-07T01:57:25;15.10;95.70
55771;DHT22;41687;-33.234;-60.334;2023-08-07T01:59:52;15.00;95.50
55771;DHT22;41687;-33.234;-60.334;2023-08-07T02:02:20;15.00;95.50
55771;DHT22;41687;-33.234;-60.334;2023-08-07T02:04:48;15.00;94.80
55771;DHT22;41687;-33.234;-60.334;2023-08-07T02:07:15;14.80;94.70
55771;DHT22;41687;-33.234;-60.334;2023-08-07T02:09:42;14.70;94.30
55771;DHT22;41687;-33.234;-60.334;2023-08-07T02:12:10;14.70;93.80
55771;DHT22;41687;-33.234;-60.334;2023-08-07T02:14:38;14.50;93.50
55771;DHT22;41687;-33.234;-60.334;2023-08-07T02:17:05;14.50;93.20
55771;DHT22;41687;-33.234;-60.334;2023-08-07T02:19:33;14.40;93.30
55771;DHT22;41687;-33.234;-60.334;2023-08-07T02:22:01;14.20;93.00
55771;DHT22;41687;-33.234;-60.334;2023-08-07T02:24:29;14.10;93.00
55771;DHT22;41687;-33.234;-60.334;2023-08-07T02:26:56;13.80;92.60
55771;DHT22;41687;-33.234;-60.334;2023-08-07T02:29:23;13.90;93.20
55771;DHT22;41687;-33.234;-60.334;2023-08-07T02:31:51;13.80;92.90
55771;DHT22;41687;-33.234;-60.334;2023-08-07T02:34:18;13.90;92.80
55771;DHT22;41687;-33.234;-60.334;2023-08-07T02:36:46;13.80;92.50
55771;DHT22;41687;-33.234;-60.334;2023-08-07T02:39:14;13.90;92.00
55771;DHT22;41687;-33.234;-60.334;2023-08-07T02:41:41;13.70;91.90
55771;DHT22;41687;-33.234;-60.334;2023-08-07T02:44:09;13.70;91.30
55771;DHT22;41687;-33.234;-60.334;2023-08-07T02:46:36;13.70;91.50
55771;DHT22;41687;-33.234;-60.334;2023-08-07T02:49:04;13.70;91.00
55771;DHT22;41687;-33.234;-60.334;2023-08-07T02:51:32;13.70;90.50
55771;DHT22;41687;-33.234;-60.334;2023-08-07T02:54:00;13.70;90.40
55771;DHT22;41687;-33.234;-60.334;2023-08-07T02:56:28;13.70;90.40
55771;DHT22;41687;-33.234;-60.334;2023-08-07T02:58:56;13.80;90.20
55771;DHT22;41687;-33.234;-60.334;2023-08-07T03:01:29;13.70;90.00
55771;DHT22;41687;-33.234;-60.334;2023-08-07T03:03:56;13.80;89.90
55771;DHT22;41687;-33.234;-60.334;2023-08-07T03:06:23;13.80;88.90
55771;DHT22;41687;-33.234;-60.334;2023-08-07T03:08:51;13.70;87.90
55771;DHT22;41687;-33.234;-60.334;2023-08-07T03:11:19;13.80;87.80
55771;DHT22;41687;-33.234;-60.334;2023-08-07T03:13:46;13.80;86.90
55771;DHT22;41687;-33.234;-60.334;2023-08-07T03:16:16;13.70;85.80
55771;DHT22;41687;-33.234;-60.334;2023-08-07T03:18:43;13.60;85.50
55771;DHT22;41687;-33.234;-60.334;2023-08-07T03:21:11;13.70;84.00
55771;DHT22;41687;-33.234;-60.334;2023-08-07T03:23:40;13.60;84.30
55771;DHT22;41687;-33.234;-60.334;2023-08-07T03:26:11;13.70;83.10
55771;DHT22;41687;-33.234;-60.334;2023-08-07T03:28:40;13.60;83.00
55771;DHT22;41687;-33.234;-60.334;2023-08-07T03:31:07;13.60;82.70
55771;DHT22;41687;-33.234;-60.334;2023-08-07T03:33:36;13.60;82.30
55771;DHT22;41687;-33.234;-60.334;2023-08-07T03:36:04;13.60;81.20
55771;DHT22;41687;-33.234;-60.334;2023-08-07T03:38:33;13.50;80.80
55771;DHT22;41687;-33.234;-60.334;2023-08-07T03:41:01;13.50;80.40
55771;DHT22;41687;-33.234;-60.334;2023-08-07T03:43:30;13.40;80.10
55771;DHT22;41687;-33.234;-60.334;2023-08-07T03:45:58;13.40;80.20
55771;DHT22;41687;-33.234;-60.334;2023-08-07T03:48:26;13.40;79.70
55771;DHT22;41687;-33.234;-60.334;2023-08-07T03:51:01;13.40;79.30
55771;DHT22;41687;-33.234;-60.334;2023-08-07T03:53:30;13.30;77.80
55771;DHT22;41687;-33.234;-60.334;2023-08-07T03:55:58;13.20;79.20
55771;DHT22;41687;-33.234;-60.334;2023-08-07T03:58:25;13.20;79.10
55771;DHT22;41687;-33.234;-60.334;2023-08-07T04:00:53;13.20;78.90
55771;DHT22;41687;-33.234;-60.334;2023-08-07T04:03:20;13.10;78.10
55771;DHT22;41687;-33.234;-60.334;2023-08-07T04:05:52;13.00;77.70
55771;DHT22;41687;-33.234;-60.334;2023-08-07T04:08:21;13.00;77.40
55771;DHT22;41687;-33.234;-60.334;2023-08-07T04:11:17;12.90;76.40
55771;DHT22;41687;-33.234;-60.334;2023-08-07T04:13:45;13.00;75.60
55771;DHT22;41687;-33.234;-60.334;2023-08-07T04:16:13;12.90;76.70
55771;DHT22;41687;-33.234;-60.334;2023-08-07T04:18:40;12.90;74.10
55771;DHT22;41687;-33.234;-60.334;2023-08-07T04:21:08;12.80;74.60
55771;DHT22;41687;-33.234;-60.334;2023-08-07T04:23:35;12.90;75.50
55771;DHT22;41687;-33.234;-60.334;2023-08-07T04:26:02;12.90;74.50
55771;DHT22;41687;-33.234;-60.334;2023-08-07T04:28:30;12.80;73.60
55771;DHT22;41687;-33.234;-60.334;2023-08-07T04:30:58;12.60;73.10
55771;DHT22;41687;-33.234;-60.334;2023-08-07T04:33:25;12.70;72.50
55771;DHT22;41687;-33.234;-60.334;2023-08-07T04:35:52;12.70;72.00
55771;DHT22;41687;-33.234;-60.334;2023-08-07T04:38:20;12.70;72.50
55771;DHT22;41687;-33.234;-60.334;2023-08-07T04:40:49;12.70;71.90
55771;DHT22;41687;-33.234;-60.334;2023-08-07T04:43:17;12.50;71.20
55771;DHT22;41687;-33.234;-60.334;2023-08-07T04:45:49;12.60;70.80
55771;DHT22;41687;-33.234;-60.334;2023-08-07T04:48:16;12.50;70.50
55771;DHT22;41687;-33.234;-60.334;2023-08-07T04:50:45;12.40;70.00
55771;DHT22;41687;-33.234;-60.334;2023-08-07T04:53:13;12.30;67.90
55771;DHT22;41687;-33.234;-60.334;2023-08-07T04:55:41;12.30;68.50
55771;DHT22;41687;-33.234;-60.334;2023-08-07T04:58:08;12.30;67.30
55771;DHT22;41687;-33.234;-60.334;2023-08-07T05:00:36;12.40;67.30
55771;DHT22;41687;-33.234;-60.334;2023-08-07T05:03:04;12.30;65.00
55771;DHT22;41687;-33.234;-60.334;2023-08-07T05:05:31;12.30;65.50
55771;DHT22;41687;-33.234;-60.334;2023-08-07T05:07:59;12.30;62.50
55771;DHT22;41687;-33.234;-60.334;2023-08-07T05:10:27;12.20;63.10
55771;DHT22;41687;-33.234;-60.334;2023-08-07T05:12:54;12.30;63.40
55771;DHT22;41687;-33.234;-60.334;2023-08-07T05:15:23;12.10;60.90
55771;DHT22;41687;-33.234;-60.334;2023-08-07T05:17:51;12.10;61.20
55771;DHT22;41687;-33.234;-60.334;2023-08-07T05:20:19;12.10;59.40
55771;DHT22;41687;-33.234;-60.334;2023-08-07T05:22:47;12.00;58.20
55771;DHT22;41687;-33.234;-60.334;2023-08-07T05:25:15;12.00;58.30
55771;DHT22;41687;-33.234;-60.334;2023-08-07T05:27:46;12.00;57.20
55771;DHT22;41687;-33.234;-60.334;2023-08-07T05:30:14;11.90;57.80
55771;DHT22;41687;-33.234;-60.334;2023-08-07T05:32:41;11.90;57.20
55771;DHT22;41687;-33.234;-60.334;2023-08-07T05:35:10;11.90;55.60
55771;DHT22;41687;-33.234;-60.334;2023-08-07T05:37:37;11.90;54.30
55771;DHT22;41687;-33.234;-60.334;2023-08-07T05:40:06;11.80;52.00
55771;DHT22;41687;-33.234;-60.334;2023-08-07T05:42:33;11.70;52.60
55771;DHT22;41687;-33.234;-60.334;2023-08-07T05:45:02;11.70;53.90
55771;DHT22;41687;-33.234;-60.334;2023-08-07T05:47:31;11.70;54.60
55771;DHT22;41687;-33.234;-60.334;2023-08-07T05:49:59;11.60;52.70
55771;DHT22;41687;-33.234;-60.334;2023-08-07T05:52:26;11.60;53.60
55771;DHT22;41687;-33.234;-60.334;2023-08-07T05:54:54;11.50;52.30
55771;DHT22;41687;-33.234;-60.334;2023-08-07T05:57:22;11.50;52.50
55771;DHT22;41687;-33.234;-60.334;2023-08-07T05:59:49;11.30;53.30
55771;DHT22;41687;-33.234;-60.334;2023-08-07T06:02:17;11.30;52.00
55771;DHT22;41687;-33.234;-60.334;2023-08-07T06:04:45;11.20;54.20
55771;DHT22;41687;-33.234;-60.334;2023-08-07T06:07:12;11.30;57.60
55771;DHT22;41687;-33.234;-60.334;2023-08-07T06:09:40;11.20;53.80
55771;DHT22;41687;-33.234;-60.334;2023-08-07T06:12:07;11.10;53.50
55771;DHT22;41687;-33.234;-60.334;2023-08-07T06:14:36;11.10;53.80
55771;DHT22;41687;-33.234;-60.334;2023-08-07T06:17:04;11.10;53.90
55771;DHT22;41687;-33.234;-60.334;2023-08-07T06:19:32;11.10;53.70
55771;DHT22;41687;-33.234;-60.334;2023-08-07T06:22:00;10.90;53.90
55771;DHT22;41687;-33.234;-60.334;2023-08-07T06:24:28;10.90;54.40
55771;DHT22;41687;-33.234;-60.334;2023-08-07T06:26:55;10.80;54.60
55771;DHT22;41687;-33.234;-60.334;2023-08-07T06:29:23;10.80;54.50
55771;DHT22;41687;-33.234;-60.334;2023-08-07T06:31:50;10.80;54.40
55771;DHT22;41687;-33.234;-60.334;2023-08-07T06:34:18;10.70;55.00
55771;DHT22;41687;-33.234;-60.334;2023-08-07T06:36:46;10.60;55.50
55771;DHT22;41687;-33.234;-60.334;2023-08-07T06:39:13;10.60;61.50
55771;DHT22;41687;-33.234;-60.334;2023-08-07T06:41:41;10.50;61.50
55771;DHT22;41687;-33.234;-60.334;2023-08-07T06:44:10;10.50;63.70
55771;DHT22;41687;-33.234;-60.334;2023-08-07T06:46:37;10.50;64.00
55771;DHT22;41687;-33.234;-60.334;2023-08-07T06:49:04;10.50;63.60
55771;DHT22;41687;-33.234;-60.334;2023-08-07T06:51:31;10.50;64.80
55771;DHT22;41687;-33.234;-60.334;2023-08-07T06:53:59;10.50;65.30
55771;DHT22;41687;-33.234;-60.334;2023-08-07T06:56:27;10.50;64.80
55771;DHT22;41687;-33.234;-60.334;2023-08-07T06:58:54;10.40;64.70
55771;DHT22;41687;-33.234;-60.334;2023-08-07T07:01:22;10.30;64.90
55771;DHT22;41687;-33.234;-60.334;2023-08-07T07:03:50;10.30;64.80
55771;DHT22;41687;-33.234;-60.334;2023-08-07T07:06:19;10.30;64.80
55771;DHT22;41687;-33.234;-60.334;2023-08-07T07:08:47;10.20;65.10
55771;DHT22;41687;-33.234;-60.334;2023-08-07T07:11:15;10.10;65.30
55771;DHT22;41687;-33.234;-60.334;2023-08-07T07:13:43;9.90;66.30
55771;DHT22;41687;-33.234;-60.334;2023-08-07T07:16:10;9.90;67.00
55771;DHT22;41687;-33.234;-60.334;2023-08-07T07:18:40;9.90;67.10
55771;DHT22;41687;-33.234;-60.334;2023-08-07T07:21:07;9.80;68.20
55771;DHT22;41687;-33.234;-60.334;2023-08-07T07:23:35;9.70;69.50
55771;DHT22;41687;-33.234;-60.334;2023-08-07T07:26:02;9.60;70.50
55771;DHT22;41687;-33.234;-60.334;2023-08-07T07:28:30;9.50;71.80
55771;DHT22;41687;-33.234;-60.334;2023-08-07T07:30:57;9.50;71.00
55771;DHT22;41687;-33.234;-60.334;2023-08-07T07:33:25;9.50;71.80
55771;DHT22;41687;-33.234;-60.334;2023-08-07T07:35:52;9.60;72.30
55771;DHT22;41687;-33.234;-60.334;2023-08-07T07:38:20;9.50;72.20
55771;DHT22;41687;-33.234;-60.334;2023-08-07T07:40:49;9.20;72.40
55771;DHT22;41687;-33.234;-60.334;2023-08-07T07:43:17;9.30;73.10
55771;DHT22;41687;-33.234;-60.334;2023-08-07T07:45:44;9.10;74.50
55771;DHT22;41687;-33.234;-60.334;2023-08-07T07:48:12;9.10;75.50
55771;DHT22;41687;-33.234;-60.334;2023-08-07T07:50:40;9.20;76.90
55771;DHT22;41687;-33.234;-60.334;2023-08-07T07:53:08;9.20;78.10
55771;DHT22;41687;-33.234;-60.334;2023-08-07T07:55:36;9.20;77.90
55771;DHT22;41687;-33.234;-60.334;2023-08-07T07:58:04;9.10;77.40
55771;DHT22;41687;-33.234;-60.334;2023-08-07T08:00:32;9.20;70.70
55771;DHT22;41687;-33.234;-60.334;2023-08-07T08:03:00;9.00;70.70
55771;DHT22;41687;-33.234;-60.334;2023-08-07T08:05:28;8.90;71.10
55771;DHT22;41687;-33.234;-60.334;2023-08-07T08:07:55;9.00;71.20
55771;DHT22;41687;-33.234;-60.334;2023-08-07T08:10:23;8.90;71.70
55771;DHT22;41687;-33.234;-60.334;2023-08-07T08:12:55;8.90;72.20
55771;DHT22;41687;-33.234;-60.334;2023-08-07T08:15:23;9.00;72.20
55771;DHT22;41687;-33.234;-60.334;2023-08-07T08:17:51;8.90;71.90
55771;DHT22;41687;-33.234;-60.334;2023-08-07T08:20:19;8.90;72.50
55771;DHT22;41687;-33.234;-60.334;2023-08-07T08:22:47;8.90;72.20
55771;DHT22;41687;-33.234;-60.334;2023-08-07T08:25:14;8.80;71.70
55771;DHT22;41687;-33.234;-60.334;2023-08-07T08:27:44;8.80;71.80
55771;DHT22;41687;-33.234;-60.334;2023-08-07T08:30:12;8.70;71.20
55771;DHT22;41687;-33.234;-60.334;2023-08-07T08:32:40;8.60;72.50
55771;DHT22;41687;-33.234;-60.334;2023-08-07T08:35:07;8.60;73.10
55771;DHT22;41687;-33.234;-60.334;2023-08-07T08:37:35;8.50;73.90
55771;DHT22;41687;-33.234;-60.334;2023-08-07T08:40:03;8.50;73.00
55771;DHT22;41687;-33.234;-60.334;2023-08-07T08:42:33;8.50;73.40
55771;DHT22;41687;-33.234;-60.334;2023-08-07T08:45:01;8.50;73.40
55771;DHT22;41687;-33.234;-60.334;2023-08-07T08:47:29;8.40;76.00
55771;DHT22;41687;-33.234;-60.334;2023-08-07T08:50:08;8.40;76.40
55771;DHT22;41687;-33.234;-60.334;2023-08-07T08:52:38;8.50;76.30
55771;DHT22;41687;-33.234;-60.334;2023-08-07T08:55:06;8.50;76.00
55771;DHT22;41687;-33.234;-60.334;2023-08-07T08:57:34;8.30;72.80
55771;DHT22;41687;-33.234;-60.334;2023-08-07T09:00:03;8.70;74.30
55771;DHT22;41687;-33.234;-60.334;2023-08-07T09:02:34;8.40;74.30
55771;DHT22;41687;-33.234;-60.334;2023-08-07T09:05:02;8.30;76.20
55771;DHT22;41687;-33.234;-60.334;2023-08-07T09:07:29;8.10;68.70
55771;DHT22;41687;-33.234;-60.334;2023-08-07T09:09:57;8.10;68.90
55771;DHT22;41687;-33.234;-60.334;2023-08-07T09:12:27;8.10;69.70
55771;DHT22;41687;-33.234;-60.334;2023-08-07T09:15:02;8.00;70.70
55771;DHT22;41687;-33.234;-60.334;2023-08-07T09:17:35;8.00;73.10
55771;DHT22;41687;-33.234;-60.334;2023-08-07T09:20:06;7.90;71.70
55771;DHT22;41687;-33.234;-60.334;2023-08-07T09:22:41;7.80;72.30
55771;DHT22;41687;-33.234;-60.334;2023-08-07T09:25:09;7.80;71.90
55771;DHT22;41687;-33.234;-60.334;2023-08-07T09:27:37;7.80;73.20
55771;DHT22;41687;-33.234;-60.334;2023-08-07T09:30:08;7.90;73.10
55771;DHT22;41687;-33.234;-60.334;2023-08-07T09:32:37;7.90;73.70
55771;DHT22;41687;-33.234;-60.334;2023-08-07T09:35:07;7.80;73.90
55771;DHT22;41687;-33.234;-60.334;2023-08-07T09:37:36;7.90;74.10
55771;DHT22;41687;-33.234;-60.334;2023-08-07T09:40:05;7.80;74.00
55771;DHT22;41687;-33.234;-60.334;2023-08-07T09:42:34;7.90;74.30
55771;DHT22;41687;-33.234;-60.334;2023-08-07T09:45:19;7.80;74.50
55771;DHT22;41687;-33.234;-60.334;2023-08-07T09:47:57;7.90;74.50
55771;DHT22;41687;-33.234;-60.334;2023-08-07T09:50:26;7.90;75.00
55771;DHT22;41687;-33.234;-60.334;2023-08-07T09:52:54;7.80;75.30
55771;DHT22;41687;-33.234;-60.334;2023-08-07T09:55:23;7.80;76.00
55771;DHT22;41687;-33.234;-60.334;2023-08-07T09:57:51;7.50;76.50
55771;DHT22;41687;-33.234;-60.334;2023-08-07T10:00:19;7.50;76.80
55771;DHT22;41687;-33.234;-60.334;2023-08-07T10:02:47;7.70;76.80
55771;DHT22;41687;-33.234;-60.334;2023-08-07T10:05:15;7.70;76.30
55771;DHT22;41687;-33.234;-60.334;2023-08-07T10:07:43;7.70;76.00
55771;DHT22;41687;-33.234;-60.334;2023-08-07T10:10:11;7.60;76.10
55771;DHT22;41687;-33.234;-60.334;2023-08-07T10:12:39;7.60;76.10
55771;DHT22;41687;-33.234;-60.334;2023-08-07T10:15:08;7.60;77.00
55771;DHT22;41687;-33.234;-60.334;2023-08-07T10:17:35;7.60;77.10
55771;DHT22;41687;-33.234;-60.334;2023-08-07T10:20:03;7.60;77.60
55771;DHT22;41687;-33.234;-60.334;2023-08-07T10:22:32;7.50;78.40
55771;DHT22;41687;-33.234;-60.334;2023-08-07T10:25:02;7.50;78.20
55771;DHT22;41687;-33.234;-60.334;2023-08-07T10:27:34;7.40;79.90
55771;DHT22;41687;-33.234;-60.334;2023-08-07T10:30:07;7.40;79.60
55771;DHT22;41687;-33.234;-60.334;2023-08-07T10:32:35;7.40;79.90
55771;DHT22;41687;-33.234;-60.334;2023-08-07T10:35:04;7.30;80.60
55771;DHT22;41687;-33.234;-60.334;2023-08-07T10:37:38;7.30;81.50
55771;DHT22;41687;-33.234;-60.334;2023-08-07T10:40:09;7.40;81.90
55771;DHT22;41687;-33.234;-60.334;2023-08-07T10:43:13;7.10;83.10
55771;DHT22;41687;-33.234;-60.334;2023-08-07T10:45:44;7.10;83.60
55771;DHT22;41687;-33.234;-60.334;2023-08-07T10:48:13;7.20;83.80
55771;DHT22;41687;-33.234;-60.334;2023-08-07T10:50:57;7.30;83.20
55771;DHT22;41687;-33.234;-60.334;2023-08-07T10:53:38;7.10;83.30
55771;DHT22;41687;-33.234;-60.334;2023-08-07T10:56:11;7.10;84.30
55771;DHT22;41687;-33.234;-60.334;2023-08-07T10:58:42;7.20;84.40
55771;DHT22;41687;-33.234;-60.334;2023-08-07T11:03:59;7.10;85.50
55771;DHT22;41687;-33.234;-60.334;2023-08-07T11:06:32;7.10;85.50
55771;DHT22;41687;-33.234;-60.334;2023-08-07T11:09:01;7.20;85.80
55771;DHT22;41687;-33.234;-60.334;2023-08-07T11:14:18;7.30;85.90
55771;DHT22;41687;-33.234;-60.334;2023-08-07T11:16:47;7.40;84.90
55771;DHT22;41687;-33.234;-60.334;2023-08-07T11:19:16;7.30;85.30
55771;DHT22;41687;-33.234;-60.334;2023-08-07T11:21:44;7.30;85.40
55771;DHT22;41687;-33.234;-60.334;2023-08-07T11:24:16;7.40;86.00
55771;DHT22;41687;-33.234;-60.334;2023-08-07T11:26:47;8.60;85.20
55771;DHT22;41687;-33.234;-60.334;2023-08-07T11:29:18;10.50;79.50
55771;DHT22;41687;-33.234;-60.334;2023-08-07T11:31:46;12.20;72.80
55771;DHT22;41687;-33.234;-60.334;2023-08-07T11:34:13;13.10;67.70
55771;DHT22;41687;-33.234;-60.334;2023-08-07T11:36:42;13.90;63.90
55771;DHT22;41687;-33.234;-60.334;2023-08-07T11:39:10;15.20;63.60
55771;DHT22;41687;-33.234;-60.334;2023-08-07T11:41:38;16.30;56.30
55771;DHT22;41687;-33.234;-60.334;2023-08-07T11:44:10;16.80;52.20
55771;DHT22;41687;-33.234;-60.334;2023-08-07T11:46:37;18.00;51.60
55771;DHT22;41687;-33.234;-60.334;2023-08-07T11:49:05;18.90;46.50
55771;DHT22;41687;-33.234;-60.334;2023-08-07T11:51:34;19.20;43.90
55771;DHT22;41687;-33.234;-60.334;2023-08-07T11:54:02;19.90;42.70
55771;DHT22;41687;-33.234;-60.334;2023-08-07T11:56:30;19.80;42.00
55771;DHT22;41687;-33.234;-60.334;2023-08-07T11:58:57;20.20;38.70
55771;DHT22;41687;-33.234;-60.334;2023-08-07T12:01:26;19.90;39.30
55771;DHT22;41687;-33.234;-60.334;2023-08-07T12:03:57;20.30;39.30
55771;DHT22;41687;-33.234;-60.334;2023-08-07T12:06:36;20.00;37.50
55771;DHT22;41687;-33.234;-60.334;2023-08-07T12:09:06;20.00;38.10
55771;DHT22;41687;-33.234;-60.334;2023-08-07T12:11:40;19.80;38.40
55771;DHT22;41687;-33.234;-60.334;2023-08-07T12:14:07;19.70;37.60
55771;DHT22;41687;-33.234;-60.334;2023-08-07T12:16:37;19.50;36.40
55771;DHT22;41687;-33.234;-60.334;2023-08-07T12:19:05;18.80;37.60
55771;DHT22;41687;-33.234;-60.334;2023-08-07T12:21:33;18.70;38.40
55771;DHT22;41687;-33.234;-60.334;2023-08-07T12:24:01;18.10;39.80
55771;DHT22;41687;-33.234;-60.334;2023-08-07T12:26:28;17.60;40.70
55771;DHT22;41687;-33.234;-60.334;2023-08-07T12:28:56;17.10;41.50
55771;DHT22;41687;-33.234;-60.334;2023-08-07T12:31:23;16.90;42.60
55771;DHT22;41687;-33.234;-60.334;2023-08-07T12:33:51;16.50;43.10
55771;DHT22;41687;-33.234;-60.334;2023-08-07T12:36:18;15.90;43.10
55771;DHT22;41687;-33.234;-60.334;2023-08-07T12:38:46;15.60;44.50
55771;DHT22;41687;-33.234;-60.334;2023-08-07T12:41:14;15.20;44.90
55771;DHT22;41687;-33.234;-60.334;2023-08-07T12:43:41;14.90;46.40
55771;DHT22;41687;-33.234;-60.334;2023-08-07T12:46:08;15.00;47.70
55771;DHT22;41687;-33.234;-60.334;2023-08-07T12:48:36;15.00;46.90
55771;DHT22;41687;-33.234;-60.334;2023-08-07T12:51:03;14.50;47.70
55771;DHT22;41687;-33.234;-60.334;2023-08-07T12:53:32;14.70;49.40
55771;DHT22;41687;-33.234;-60.334;2023-08-07T12:55:59;14.70;49.00
55771;DHT22;41687;-33.234;-60.334;2023-08-07T12:58:27;14.50;49.20
55771;DHT22;41687;-33.234;-60.334;2023-08-07T13:00:56;14.60;47.90
55771;DHT22;41687;-33.234;-60.334;2023-08-07T13:03:23;14.50;48.70
55771;DHT22;41687;-33.234;-60.334;2023-08-07T13:05:50;14.30;48.80
55771;DHT22;41687;-33.234;-60.334;2023-08-07T13:08:18;14.50;49.50
55771;DHT22;41687;-33.234;-60.334;2023-08-07T13:10:46;14.20;49.50
55771;DHT22;41687;-33.234;-60.334;2023-08-07T13:13:13;13.80;50.50
55771;DHT22;41687;-33.234;-60.334;2023-08-07T13:15:41;13.70;51.20
55771;DHT22;41687;-33.234;-60.334;2023-08-07T13:18:09;13.60;52.80
55771;DHT22;41687;-33.234;-60.334;2023-08-07T13:20:37;13.60;52.00
55771;DHT22;41687;-33.234;-60.334;2023-08-07T13:23:04;13.70;52.10
55771;DHT22;41687;-33.234;-60.334;2023-08-07T13:25:33;13.60;51.90
55771;DHT22;41687;-33.234;-60.334;2023-08-07T13:28:01;13.40;52.10
55771;DHT22;41687;-33.234;-60.334;2023-08-07T13:30:34;13.30;52.30
55771;DHT22;41687;-33.234;-60.334;2023-08-07T13:33:01;13.20;52.50
55771;DHT22;41687;-33.234;-60.334;2023-08-07T13:35:29;13.30;54.10
55771;DHT22;41687;-33.234;-60.334;2023-08-07T13:37:56;13.10;52.80
55771;DHT22;41687;-33.234;-60.334;2023-08-07T13:40:23;12.90;52.30
55771;DHT22;41687;-33.234;-60.334;2023-08-07T13:42:51;12.80;53.50
55771;DHT22;41687;-33.234;-60.334;2023-08-07T13:45:20;12.70;53.60
55771;DHT22;41687;-33.234;-60.334;2023-08-07T13:47:47;12.60;54.70
55771;DHT22;41687;-33.234;-60.334;2023-08-07T13:50:15;12.70;55.30
55771;DHT22;41687;-33.234;-60.334;2023-08-07T13:52:42;12.60;54.60
55771;DHT22;41687;-33.234;-60.334;2023-08-07T13:55:10;12.70;55.10
55771;DHT22;41687;-33.234;-60.334;2023-08-07T13:57:38;12.70;54.10
55771;DHT22;41687;-33.234;-60.334;2023-08-07T14:00:06;12.50;53.80
55771;DHT22;41687;-33.234;-60.334;2023-08-07T14:02:34;12.40;55.30
55771;DHT22;41687;-33.234;-60.334;2023-08-07T14:05:02;12.50;55.20
55771;DHT22;41687;-33.234;-60.334;2023-08-07T14:07:30;12.60;55.10
55771;DHT22;41687;-33.234;-60.334;2023-08-07T14:09:58;12.40;54.90
55771;DHT22;41687;-33.234;-60.334;2023-08-07T14:12:25;12.20;55.30
55771;DHT22;41687;-33.234;-60.334;2023-08-07T14:14:54;12.20;56.00
55771;DHT22;41687;-33.234;-60.334;2023-08-07T14:17:21;12.30;56.40
55771;DHT22;41687;-33.234;-60.334;2023-08-07T14:19:49;12.30;56.70
55771;DHT22;41687;-33.234;-60.334;2023-08-07T14:22:16;12.20;57.00
55771;DHT22;41687;-33.234;-60.334;2023-08-07T14:24:44;12.30;56.60
55771;DHT22;41687;-33.234;-60.334;2023-08-07T14:27:11;12.30;57.30
55771;DHT22;41687;-33.234;-60.334;2023-08-07T14:29:39;12.30;56.90
55771;DHT22;41687;-33.234;-60.334;2023-08-07T14:32:06;12.20;56.90
55771;DHT22;41687;-33.234;-60.334;2023-08-07T14:34:34;12.30;57.90
55771;DHT22;41687;-33.234;-60.334;2023-08-07T14:37:02;12.30;58.00
55771;DHT22;41687;-33.234;-60.334;2023-08-07T14:39:29;12.20;57.50
55771;DHT22;41687;-33.234;-60.334;2023-08-07T14:41:57;12.30;58.60
55771;DHT22;41687;-33.234;-60.334;2023-08-07T14:44:25;12.30;58.00
55771;DHT22;41687;-33.234;-60.334;2023-08-07T14:46:52;12.30;56.90
55771;DHT22;41687;-33.234;-60.334;2023-08-07T14:49:20;12.50;56.30
55771;DHT22;41687;-33.234;-60.334;2023-08-07T14:51:47;12.70;57.20
55771;DHT22;41687;-33.234;-60.334;2023-08-07T14:54:15;12.60;55.90
55771;DHT22;41687;-33.234;-60.334;2023-08-07T14:56:43;12.70;55.60
55771;DHT22;41687;-33.234;-60.334;2023-08-07T14:59:11;12.70;56.00
55771;DHT22;41687;-33.234;-60.334;2023-08-07T15:01:38;12.70;56.00
55771;DHT22;41687;-33.234;-60.334;2023-08-07T15:04:06;12.50;55.50
55771;DHT22;41687;-33.234;-60.334;2023-08-07T15:06:33;12.50;56.80
55771;DHT22;41687;-33.234;-60.334;2023-08-07T15:09:01;12.60;57.50
55771;DHT22;41687;-33.234;-60.334;2023-08-07T15:11:28;12.70;56.90